createdAt,value
2022-10-22T00:00:36.872Z,100.00
2022-10-22T00:03:04.132Z,100.00
2022-10-22T00:05:31.351Z,100.00
2022-10-22T00:07:58.537Z,100.00
2022-10-22T00:10:25.706Z,100.00
2022-10-22T00:12:52.884Z,100.00
2022-10-22T00:15:20.137Z,100.00
2022-10-22T00:17:49.513Z,100.00
2022-10-22T00:20:16.922Z,100.00
2022-10-22T00:22:44.122Z,100.00
2022-10-22T00:25:11.299Z,100.00
2022-10-22T00:27:38.709Z,100.00
2022-10-22T00:30:06.441Z,100.00
2022-10-22T00:32:33.600Z,100.00
2022-10-22T00:35:00.942Z,100.00
2022-10-22T00:37:28.113Z,100.00
2022-10-22T00:39:55.301Z,100.00
2022-10-22T00:42:24.949Z,100.00
2022-10-22T00:45:10.803Z,100.00
2022-10-22T00:47:54.577Z,100.00
2022-10-22T00:50:29.686Z,100.00
2022-10-22T00:52:57.842Z,100.00
2022-10-22T00:55:26.370Z,100.00
2022-10-22T00:57:55.071Z,100.00
2022-10-22T01:00:22.571Z,100.00
2022-10-22T01:02:50.812Z,100.00
2022-10-22T01:05:18.498Z,100.00
2022-10-22T01:07:49.134Z,100.00
2022-10-22T01:10:45.660Z,100.00
2022-10-22T01:13:31.905Z,100.00
2022-10-22T01:16:26.247Z,100.00
2022-10-22T01:19:25.999Z,100.00
2022-10-22T01:21:58.788Z,100.00
2022-10-22T01:24:34.783Z,100.00
2022-10-22T01:27:25.920Z,100.00
2022-10-22T01:30:06.492Z,100.00
2022-10-22T01:32:50.246Z,100.00
2022-10-22T01:35:23.831Z,100.00
2022-10-22T01:37:57.794Z,100.00
2022-10-22T01:40:25.678Z,100.00
2022-10-22T01:43:01.235Z,100.00
2022-10-22T01:45:37.806Z,100.00
2022-10-22T01:48:32.860Z,100.00
2022-10-22T01:51:51.264Z,100.00
2022-10-22T01:54:26.306Z,100.00
2022-10-22T01:57:14.927Z,100.00
2022-10-22T02:00:05.514Z,100.00
2022-10-22T02:05:32.918Z,100.00
2022-10-22T02:08:23.910Z,100.00
2022-10-22T02:10:51.728Z,100.00
2022-10-22T02:13:23.433Z,100.00
2022-10-22T02:15:52.385Z,100.00
2022-10-22T02:18:25.790Z,100.00
2022-10-22T02:20:54.421Z,100.00
2022-10-22T02:23:22.747Z,100.00
2022-10-22T02:25:54.154Z,100.00
2022-10-22T02:28:35.659Z,100.00
2022-10-22T02:31:10.186Z,100.00
2022-10-22T02:33:41.331Z,100.00
2022-10-22T02:36:09.100Z,100.00
2022-10-22T02:38:36.952Z,100.00
2022-10-22T02:41:04.603Z,100.00
2022-10-22T02:43:31.758Z,100.00
2022-10-22T02:45:58.927Z,100.00
2022-10-22T02:48:26.142Z,100.00
2022-10-22T02:50:53.291Z,100.00
2022-10-22T02:53:20.471Z,100.00
2022-10-22T02:55:47.616Z,100.00
2022-10-22T02:58:14.777Z,100.00
2022-10-22T03:00:41.943Z,100.00
2022-10-22T03:03:09.099Z,100.00
2022-10-22T03:05:36.301Z,100.00
2022-10-22T03:08:03.456Z,100.00
2022-10-22T03:10:30.621Z,100.00
2022-10-22T03:12:58.196Z,100.00
2022-10-22T03:15:25.430Z,100.00
2022-10-22T03:17:52.592Z,100.00
2022-10-22T03:20:19.785Z,100.00
2022-10-22T03:22:47.223Z,100.00
2022-10-22T03:25:19.218Z,100.00
2022-10-22T03:27:46.864Z,100.00
2022-10-22T03:30:14.061Z,100.00
2022-10-22T03:32:41.296Z,100.00
2022-10-22T03:35:08.705Z,100.00
2022-10-22T03:37:37.066Z,100.00
2022-10-22T03:40:06.733Z,100.00
2022-10-22T03:42:34.148Z,100.00
2022-10-22T03:45:01.312Z,100.00
2022-10-22T03:47:28.504Z,100.00
2022-10-22T03:49:55.685Z,100.00
2022-10-22T03:52:22.846Z,100.00
2022-10-22T03:54:50.057Z,100.00
2022-10-22T03:57:17.208Z,100.00
2022-10-22T03:59:45.621Z,100.00
2022-10-22T04:02:13.690Z,100.00
2022-10-22T04:04:40.862Z,100.00
2022-10-22T04:07:08.434Z,100.00
2022-10-22T04:09:36.315Z,100.00
2022-10-22T04:12:05.470Z,100.00
2022-10-22T04:14:32.887Z,100.00
2022-10-22T04:17:00.044Z,100.00
2022-10-22T04:19:27.229Z,100.00
2022-10-22T04:21:54.362Z,100.00
2022-10-22T04:24:22.070Z,100.00
2022-10-22T04:26:49.204Z,100.00
2022-10-22T04:29:16.576Z,100.00
2022-10-22T04:31:44.072Z,100.00
2022-10-22T04:34:11.238Z,100.00
2022-10-22T04:36:38.593Z,100.00
2022-10-22T04:39:06.194Z,100.00
2022-10-22T04:41:36.383Z,100.00
2022-10-22T04:44:04.104Z,100.00
2022-10-22T04:46:33.400Z,100.00
2022-10-22T04:49:00.623Z,100.00
2022-10-22T04:51:28.372Z,100.00
2022-10-22T04:53:55.717Z,100.00
2022-10-22T04:56:26.355Z,100.00
2022-10-22T04:58:56.127Z,100.00
2022-10-22T05:01:31.785Z,100.00
2022-10-22T05:04:00.483Z,100.00
2022-10-22T05:06:29.274Z,100.00
2022-10-22T05:09:01.961Z,100.00
2022-10-22T05:11:33.307Z,100.00
2022-10-22T05:14:02.314Z,100.00
2022-10-22T05:16:30.444Z,100.00
2022-10-22T05:18:59.199Z,100.00
2022-10-22T05:21:27.000Z,100.00
2022-10-22T05:23:55.393Z,100.00
2022-10-22T05:26:23.746Z,100.00
2022-10-22T05:28:51.604Z,100.00
2022-10-22T05:31:20.007Z,100.00
2022-10-22T05:33:47.588Z,100.00
2022-10-22T05:36:18.377Z,100.00
2022-10-22T05:38:46.019Z,100.00
2022-10-22T05:41:19.095Z,100.00
2022-10-22T05:43:46.969Z,100.00
2022-10-22T05:46:21.395Z,100.00
2022-10-22T05:49:00.967Z,100.00
2022-10-22T05:51:30.159Z,100.00
2022-10-22T05:53:59.130Z,100.00
2022-10-22T05:56:27.491Z,100.00
2022-10-22T05:58:55.002Z,100.00
2022-10-22T06:01:27.901Z,100.00
2022-10-22T06:03:57.645Z,100.00
2022-10-22T06:06:37.583Z,100.00
2022-10-22T06:09:27.942Z,100.00
2022-10-22T06:11:56.292Z,100.00
2022-10-22T06:14:24.420Z,100.00
2022-10-22T06:16:51.878Z,100.00
2022-10-22T06:19:20.737Z,100.00
2022-10-22T06:21:48.306Z,100.00
2022-10-22T06:24:16.002Z,100.00
2022-10-22T06:26:43.776Z,100.00
2022-10-22T06:29:11.021Z,100.00
2022-10-22T06:31:38.186Z,100.00
2022-10-22T06:34:06.754Z,100.00
2022-10-22T06:36:34.851Z,100.00
2022-10-22T06:39:02.202Z,100.00
2022-10-22T06:41:29.790Z,100.00
2022-10-22T06:43:57.880Z,100.00
2022-10-22T06:46:26.050Z,100.00
2022-10-22T06:48:58.453Z,100.00
2022-10-22T06:51:26.747Z,100.00
2022-10-22T06:53:55.435Z,100.00
2022-10-22T06:56:23.895Z,100.00
2022-10-22T06:58:52.189Z,100.00
2022-10-22T07:01:21.437Z,100.00
2022-10-22T07:03:49.954Z,100.00
2022-10-22T07:06:17.253Z,100.00
2022-10-22T07:08:44.483Z,100.00
2022-10-22T07:11:14.387Z,100.00
2022-10-22T07:13:41.849Z,100.00
2022-10-22T07:16:09.563Z,100.00
2022-10-22T07:18:38.195Z,100.00
2022-10-22T07:21:06.432Z,100.00
2022-10-22T07:23:33.804Z,100.00
2022-10-22T07:26:02.787Z,100.00
2022-10-22T07:28:30.728Z,100.00
2022-10-22T07:30:57.928Z,100.00
2022-10-22T07:33:25.188Z,100.00
2022-10-22T07:35:57.093Z,100.00
2022-10-22T07:38:24.274Z,100.00
2022-10-22T07:40:51.426Z,100.00
2022-10-22T07:43:18.608Z,100.00
2022-10-22T07:45:45.924Z,100.00
2022-10-22T07:48:13.130Z,100.00
2022-10-22T07:50:40.353Z,100.00
2022-10-22T07:53:07.553Z,100.00
2022-10-22T07:55:35.268Z,100.00
2022-10-22T07:58:02.800Z,100.00
2022-10-22T08:00:29.970Z,100.00
2022-10-22T08:02:57.170Z,100.00
2022-10-22T08:05:24.387Z,100.00
2022-10-22T08:07:51.540Z,100.00
2022-10-22T08:10:18.707Z,100.00
2022-10-22T08:12:45.924Z,100.00
2022-10-22T08:15:13.081Z,100.00
2022-10-22T08:17:40.622Z,100.00
2022-10-22T08:20:08.481Z,100.00
2022-10-22T08:22:35.962Z,100.00
2022-10-22T08:25:03.167Z,100.00
2022-10-22T08:27:30.364Z,100.00
2022-10-22T08:29:57.509Z,100.00
2022-10-22T08:32:24.692Z,100.00
2022-10-22T08:34:51.856Z,100.00
2022-10-22T08:37:19.042Z,100.00
2022-10-22T08:39:46.284Z,100.00
2022-10-22T08:42:35.120Z,100.00
2022-10-22T08:45:25.682Z,100.00
2022-10-22T08:48:23.441Z,100.00
2022-10-22T08:50:52.773Z,100.00
2022-10-22T08:53:42.221Z,100.00
2022-10-22T08:56:09.428Z,100.00
2022-10-22T08:58:47.966Z,100.00
2022-10-22T09:01:16.521Z,100.00
2022-10-22T09:04:00.102Z,100.00
2022-10-22T09:06:57.373Z,100.00
2022-10-22T09:09:28.028Z,100.00
2022-10-22T09:11:57.893Z,100.00
2022-10-22T09:14:25.679Z,100.00
2022-10-22T09:17:16.604Z,100.00
2022-10-22T09:19:54.970Z,100.00
2022-10-22T09:22:40.279Z,100.00
2022-10-22T09:25:20.280Z,100.00
2022-10-22T09:27:48.247Z,100.00
2022-10-22T09:30:18.438Z,100.00
2022-10-22T09:32:45.881Z,100.00
2022-10-22T09:35:14.145Z,100.00
2022-10-22T09:37:50.539Z,99.80
2022-10-22T09:40:18.441Z,99.12
2022-10-22T09:42:46.792Z,98.00
2022-10-22T09:45:23.327Z,98.21
2022-10-22T09:48:01.446Z,98.05
2022-10-22T09:50:41.596Z,97.91
2022-10-22T09:53:20.808Z,97.45
2022-10-22T09:55:52.323Z,97.84
2022-10-22T09:58:20.155Z,97.48
2022-10-22T10:00:51.793Z,97.39
2022-10-22T10:03:21.790Z,96.54
2022-10-22T10:05:51.856Z,95.76
2022-10-22T10:08:19.371Z,95.59
2022-10-22T10:11:01.284Z,95.95
2022-10-22T10:14:02.880Z,95.41
2022-10-22T10:16:39.737Z,95.87
2022-10-22T10:19:13.042Z,96.42
2022-10-22T10:21:59.452Z,95.68
2022-10-22T10:25:01.932Z,96.08
2022-10-22T10:27:38.720Z,96.01
2022-10-22T10:30:18.214Z,96.59
2022-10-22T10:33:32.373Z,97.14
2022-10-22T10:36:10.377Z,96.70
2022-10-22T10:38:55.987Z,96.50
2022-10-22T10:41:28.133Z,98.69
2022-10-22T10:44:23.016Z,99.84
2022-10-22T10:46:54.201Z,100.00
2022-10-22T10:49:25.830Z,100.00
2022-10-22T10:52:27.174Z,100.00
2022-10-22T10:55:33.798Z,95.92
2022-10-22T10:58:17.119Z,97.11
2022-10-22T11:00:53.839Z,93.96
2022-10-22T11:03:27.149Z,95.14
2022-10-22T11:06:16.197Z,96.67
2022-10-22T11:08:46.398Z,97.48
2022-10-22T11:11:40.696Z,100.00
2022-10-22T11:14:18.475Z,100.00
2022-10-22T11:17:15.070Z,100.00
2022-10-22T11:20:04.598Z,100.00
2022-10-22T11:23:18.014Z,99.03
2022-10-22T11:25:47.802Z,93.43
2022-10-22T11:28:34.227Z,93.38
2022-10-22T11:31:14.631Z,90.91
2022-10-22T11:34:28.606Z,89.87
2022-10-22T11:36:53.295Z,89.14
2022-10-22T11:39:38.221Z,93.39
2022-10-22T11:42:12.736Z,95.75
2022-10-22T11:44:58.582Z,94.61
2022-10-22T11:47:28.706Z,93.53
2022-10-22T11:49:58.922Z,90.88
2022-10-22T11:52:40.978Z,91.22
2022-10-22T11:55:45.663Z,94.51
2022-10-22T11:58:43.904Z,89.12
2022-10-22T12:01:11.084Z,89.84
2022-10-22T12:03:43.991Z,91.66
2022-10-22T12:06:11.983Z,87.36
2022-10-22T12:08:46.115Z,87.30
2022-10-22T12:11:25.948Z,89.29
2022-10-22T12:13:58.871Z,87.45
2022-10-22T12:17:02.487Z,87.04
2022-10-22T12:19:39.921Z,89.83
2022-10-22T12:22:09.832Z,89.50
2022-10-22T12:24:52.430Z,90.16
2022-10-22T12:27:25.639Z,90.96
2022-10-22T12:29:58.079Z,91.02
2022-10-22T12:32:37.736Z,90.93
2022-10-22T12:35:14.786Z,89.27
2022-10-22T12:37:42.252Z,89.16
2022-10-22T12:40:18.477Z,89.34
2022-10-22T12:42:52.201Z,89.82
2022-10-22T12:45:19.836Z,88.50
2022-10-22T12:47:51.726Z,89.84
2022-10-22T12:50:24.556Z,90.02
2022-10-22T12:52:54.080Z,89.11
2022-10-22T12:55:25.528Z,86.24
2022-10-22T12:57:52.922Z,87.63
2022-10-22T13:00:28.809Z,87.32
2022-10-22T13:02:59.327Z,89.24
2022-10-22T13:05:31.159Z,88.42
2022-10-22T13:08:08.387Z,89.43
2022-10-22T13:10:38.202Z,89.76
2022-10-22T13:13:08.618Z,89.35
2022-10-22T13:15:39.009Z,88.41
2022-10-22T13:18:15.485Z,89.33
2022-10-22T13:21:00.873Z,87.68
2022-10-22T13:23:30.036Z,87.65
2022-10-22T13:26:01.330Z,86.75
2022-10-22T13:28:29.713Z,88.93
2022-10-22T13:30:58.903Z,89.46
2022-10-22T13:33:33.480Z,87.36
2022-10-22T13:36:00.820Z,87.32
2022-10-22T13:38:31.441Z,86.16
2022-10-22T13:40:59.379Z,86.70
2022-10-22T13:43:26.532Z,83.31
2022-10-22T13:45:55.947Z,84.00
2022-10-22T13:48:24.907Z,85.02
2022-10-22T13:50:52.494Z,84.58
2022-10-22T13:53:28.010Z,86.49
2022-10-22T13:55:55.186Z,87.78
2022-10-22T13:58:26.367Z,88.29
2022-10-22T14:00:58.260Z,88.94
2022-10-22T14:03:31.871Z,88.80
2022-10-22T14:05:59.072Z,88.84
2022-10-22T14:08:26.665Z,88.46
2022-10-22T14:10:54.275Z,88.51
2022-10-22T14:13:21.848Z,88.23
2022-10-22T14:15:50.531Z,87.65
2022-10-22T14:18:26.255Z,87.95
2022-10-22T14:20:55.591Z,87.96
2022-10-22T14:23:26.487Z,87.89
2022-10-22T14:25:53.971Z,87.75
2022-10-22T14:28:21.129Z,87.30
2022-10-22T14:30:48.359Z,88.12
2022-10-22T14:33:31.530Z,88.87
2022-10-22T14:36:00.435Z,89.36
2022-10-22T14:38:28.097Z,89.83
2022-10-22T14:40:55.765Z,89.75
2022-10-22T14:43:26.781Z,90.04
2022-10-22T14:45:54.101Z,90.71
2022-10-22T14:48:21.515Z,90.74
2022-10-22T14:50:49.106Z,90.84
2022-10-22T14:53:16.860Z,91.11
2022-10-22T14:55:44.872Z,90.92
2022-10-22T14:58:12.452Z,90.65
2022-10-22T15:00:42.326Z,90.99
2022-10-22T15:03:10.273Z,90.83
2022-10-22T15:05:43.919Z,91.09
2022-10-22T15:08:15.079Z,91.73
2022-10-22T15:10:42.495Z,92.15
2022-10-22T15:13:09.782Z,92.32
2022-10-22T15:15:40.125Z,92.15
2022-10-22T15:18:07.463Z,92.40
2022-10-22T15:20:34.697Z,92.89
2022-10-22T15:23:01.915Z,92.88
2022-10-22T15:25:29.091Z,92.75
2022-10-22T15:28:01.854Z,93.07
2022-10-22T15:30:31.893Z,93.03
2022-10-22T15:32:59.036Z,93.39
2022-10-22T15:35:28.707Z,94.38
2022-10-22T15:37:55.894Z,95.27
2022-10-22T15:40:23.081Z,96.07
2022-10-22T15:42:50.236Z,96.41
2022-10-22T15:45:17.592Z,96.40
2022-10-22T15:47:48.982Z,96.27
2022-10-22T15:50:16.825Z,96.52
2022-10-22T15:52:44.000Z,96.70
2022-10-22T15:57:43.829Z,97.86
2022-10-22T16:00:11.864Z,98.21
2022-10-22T16:02:39.057Z,98.25
2022-10-22T16:05:06.639Z,98.13
2022-10-22T16:07:33.777Z,98.12
2022-10-22T16:10:01.626Z,97.99
2022-10-22T16:12:28.790Z,97.97
2022-10-22T16:14:55.963Z,97.85
2022-10-22T16:17:23.469Z,98.55
2022-10-22T16:19:50.691Z,98.66
2022-10-22T16:22:17.875Z,98.83
2022-10-22T16:24:45.077Z,99.31
2022-10-22T16:27:12.248Z,98.61
2022-10-22T16:29:40.069Z,98.73
2022-10-22T16:32:08.066Z,97.94
2022-10-22T16:34:35.253Z,98.08
2022-10-22T16:37:02.611Z,97.67
2022-10-22T16:39:29.805Z,97.86
2022-10-22T16:41:57.033Z,97.73
2022-10-22T16:44:24.207Z,98.03
2022-10-22T16:46:51.355Z,97.84
2022-10-22T16:49:18.523Z,98.11
2022-10-22T16:51:45.786Z,98.44
2022-10-22T16:54:15.531Z,98.13
2022-10-22T16:56:42.720Z,98.34
2022-10-22T16:59:09.855Z,98.41
2022-10-22T17:01:40.862Z,98.24
2022-10-22T17:04:08.874Z,97.95
2022-10-22T17:06:36.204Z,98.10
2022-10-22T17:09:04.073Z,98.03
2022-10-22T17:11:36.369Z,98.35
2022-10-22T17:14:05.361Z,98.42
2022-10-22T17:16:32.556Z,98.03
2022-10-22T17:18:59.783Z,98.18
2022-10-22T17:21:27.001Z,98.48
2022-10-22T17:23:55.998Z,100.00
2022-10-22T17:26:26.419Z,100.00
2022-10-22T17:28:53.947Z,100.00
2022-10-22T17:31:30.139Z,100.00
2022-10-22T17:33:57.682Z,100.00
2022-10-22T17:36:25.851Z,97.79
2022-10-22T17:38:55.695Z,95.55
2022-10-22T17:41:25.330Z,93.39
2022-10-22T17:43:52.681Z,91.99
2022-10-22T17:46:25.251Z,92.36
2022-10-22T17:48:53.749Z,89.91
2022-10-22T17:51:21.919Z,90.10
2022-10-22T17:53:51.885Z,88.30
2022-10-22T17:56:22.921Z,87.90
2022-10-22T17:58:50.258Z,86.85
2022-10-22T18:01:25.889Z,87.66
2022-10-22T18:03:54.564Z,87.60
2022-10-22T18:06:22.088Z,87.27
2022-10-22T18:08:49.316Z,85.87
2022-10-22T18:11:22.166Z,87.06
2022-10-22T18:13:50.575Z,87.47
2022-10-22T18:16:17.908Z,87.23
2022-10-22T18:18:50.181Z,87.28
2022-10-22T18:21:17.505Z,88.25
2022-10-22T18:23:45.623Z,88.57
2022-10-22T18:26:13.421Z,89.87
2022-10-22T18:28:40.605Z,89.99
2022-10-22T18:31:09.660Z,90.09
2022-10-22T18:33:37.684Z,90.35
2022-10-22T18:36:07.472Z,89.93
2022-10-22T18:38:35.143Z,90.72
2022-10-22T18:41:02.301Z,90.47
2022-10-22T18:43:29.494Z,90.55
2022-10-22T18:45:56.656Z,91.12
2022-10-22T18:48:24.834Z,90.89
2022-10-22T18:51:03.652Z,90.59
2022-10-22T18:53:30.841Z,90.55
2022-10-22T18:55:58.261Z,90.21
2022-10-22T18:58:25.430Z,90.14
2022-10-22T19:00:52.641Z,90.49
2022-10-22T19:03:19.912Z,90.63
2022-10-22T19:05:49.424Z,91.36
2022-10-22T19:08:19.910Z,92.03
2022-10-22T19:10:47.857Z,92.49
2022-10-22T19:13:16.815Z,92.81
2022-10-22T19:15:44.007Z,92.83
2022-10-22T19:18:11.334Z,93.34
2022-10-22T19:20:38.537Z,93.19
2022-10-22T19:23:07.252Z,93.21
2022-10-22T19:25:35.023Z,93.26
2022-10-22T19:28:02.184Z,93.67
2022-10-22T19:30:29.421Z,94.74
2022-10-22T19:32:56.604Z,95.07
2022-10-22T19:35:23.853Z,95.38
2022-10-22T19:37:52.166Z,95.86
2022-10-22T19:40:19.443Z,96.94
2022-10-22T19:42:50.290Z,98.27
2022-10-22T19:45:18.203Z,98.59
2022-10-22T19:47:45.427Z,99.33
2022-10-22T19:50:12.603Z,99.01
2022-10-22T19:52:40.139Z,98.94
2022-10-22T19:55:09.981Z,98.84
2022-10-22T19:57:38.813Z,98.49
2022-10-22T20:00:07.549Z,98.90
2022-10-22T20:02:34.722Z,99.31
2022-10-22T20:05:01.878Z,99.67
2022-10-22T20:07:29.190Z,100.00
2022-10-22T20:09:56.352Z,100.00
2022-10-22T20:12:23.554Z,99.95
2022-10-22T20:14:51.557Z,99.95
2022-10-22T20:17:18.846Z,99.24
2022-10-22T20:19:45.988Z,98.63
2022-10-22T20:22:16.273Z,98.40
2022-10-22T20:24:45.994Z,97.61
2022-10-22T20:27:14.286Z,97.76
2022-10-22T20:29:41.490Z,97.43
2022-10-22T20:32:08.955Z,96.98
2022-10-22T20:34:36.945Z,97.13
2022-10-22T20:37:04.174Z,96.93
2022-10-22T20:39:31.594Z,96.96
2022-10-22T20:41:58.782Z,96.86
2022-10-22T20:44:25.963Z,97.05
2022-10-22T20:46:53.214Z,97.45
2022-10-22T20:49:23.478Z,97.31
2022-10-22T20:51:50.667Z,98.04
2022-10-22T20:54:19.176Z,98.07
2022-10-22T20:56:47.938Z,97.71
2022-10-22T20:59:15.764Z,98.11
2022-10-22T21:01:48.487Z,98.06
2022-10-22T21:04:16.973Z,97.68
2022-10-22T21:06:44.230Z,97.85
2022-10-22T21:09:13.517Z,97.46
2022-10-22T21:11:41.560Z,97.53
2022-10-22T21:14:10.330Z,97.42
2022-10-22T21:16:41.667Z,97.23
2022-10-22T21:19:08.878Z,97.90
2022-10-22T21:21:36.062Z,97.29
2022-10-22T21:24:03.789Z,97.43
2022-10-22T21:26:31.031Z,96.72
2022-10-22T21:28:58.226Z,97.03
2022-10-22T21:31:30.959Z,96.51
2022-10-22T21:33:58.562Z,96.44
2022-10-22T21:36:25.810Z,96.28
2022-10-22T21:38:53.275Z,96.60
2022-10-22T21:41:22.305Z,96.58
2022-10-22T21:43:49.753Z,96.08
2022-10-22T21:46:19.391Z,96.48
2022-10-22T21:48:46.992Z,96.11
2022-10-22T21:51:18.908Z,96.72
2022-10-22T21:53:46.673Z,96.92
2022-10-22T21:56:22.827Z,97.44
2022-10-22T21:58:50.407Z,97.55
2022-10-22T22:01:21.076Z,97.11
2022-10-22T22:03:49.878Z,97.25
2022-10-22T22:06:21.240Z,97.82
2022-10-22T22:08:49.682Z,97.95
2022-10-22T22:11:19.554Z,98.43
2022-10-22T22:13:48.689Z,98.68
2022-10-22T22:16:21.315Z,99.07
2022-10-22T22:18:51.160Z,99.64
2022-10-22T22:21:20.377Z,99.60
2022-10-22T22:23:47.882Z,100.00
2022-10-22T22:26:17.123Z,100.00
2022-10-22T22:28:44.220Z,100.00
2022-10-22T22:31:16.079Z,100.00
2022-10-22T22:33:43.797Z,100.00
2022-10-22T22:36:11.319Z,100.00
2022-10-22T22:38:38.544Z,100.00
2022-10-22T22:41:06.874Z,100.00
2022-10-22T22:43:34.523Z,100.00
2022-10-22T22:46:07.013Z,100.00
2022-10-22T22:48:34.839Z,100.00
2022-10-22T22:51:06.622Z,100.00
2022-10-22T22:53:34.804Z,100.00
2022-10-22T22:56:08.669Z,100.00
2022-10-22T22:58:36.767Z,100.00
2022-10-22T23:01:29.340Z,100.00
2022-10-22T23:03:58.763Z,100.00
2022-10-22T23:06:28.560Z,100.00
2022-10-22T23:08:56.833Z,100.00
2022-10-22T23:11:24.961Z,100.00
2022-10-22T23:13:54.549Z,100.00
2022-10-22T23:16:24.141Z,100.00
2022-10-22T23:18:53.247Z,100.00
2022-10-22T23:21:31.980Z,100.00
2022-10-22T23:24:01.528Z,100.00
2022-10-22T23:26:35.525Z,100.00
2022-10-22T23:29:14.207Z,100.00
2022-10-22T23:31:41.897Z,100.00
2022-10-22T23:34:10.015Z,100.00
2022-10-22T23:36:37.906Z,100.00
2022-10-22T23:39:09.834Z,100.00
2022-10-22T23:41:37.131Z,100.00
2022-10-22T23:44:05.323Z,100.00
2022-10-22T23:46:33.404Z,100.00
2022-10-22T23:49:01.215Z,100.00
2022-10-22T23:51:28.652Z,100.00
2022-10-22T23:54:04.729Z,100.00
2022-10-22T23:56:32.402Z,100.00
2022-10-22T23:58:59.611Z,100.00
